Silver Cloud — C6MQ5 — position and weather

sailwx.info

Track history (hours):
 
Tides and Currents Weather Stations Pressure Air Temp Water Temp Dewpoint Dewpoint Depression Visibility Wind Speed Wind Dir Waves Ship Positions

Silver Cloud

Operator: V Ships Leisure SAM

Last reported at 2016-Jul-01 18:33 UTC. Time now 2016-Jul-01 19:00 UTC.
Position N 42°07' E 011°05'.

Length 155 m; draft 5.7 m.

Type: Passenger vessel. MMSI: 309027000.

Date/timePositionNaut miles runAvg speedWind from/ knotsBaromVisibWave heightAir tempDewpointWater temp
2016-Jul-01 18:33N 42°07' E 011°05'31 3.7
2016-Jul-01 10:07N 42°05' E 011°47'20 3.4
2016-Jul-01 04:07N 41°58' E 011°22'1017.0
2016-Jul-01 03:33N 41°55' E 011°09'1716.8
2016-Jul-01 02:33N 41°49' E 010°48'2117.0
2016-Jul-01 01:18N 41°42' E 010°21'1317.2
2016-Jul-01 00:34N 41°38' E 010°05'1717.1
2016-Jun-30 23:33N 41°32' E 009°43'321 9.9
2016-Jun-29 15:12N 39°59' E 002°58'1117.2
2016-Jun-29 14:33N 39°53' E 002°45'6 5.0
2016-Jun-29 13:23N 39°48' E 002°41'0 0.0
2016-Jun-29 12:32N 39°48' E 002°41'0 0.0
2016-Jun-29 11:29N 39°48' E 002°41'0 0.0
2016-Jun-29 10:32N 39°48' E 002°41'0 0.0
2016-Jun-29 09:29N 39°48' E 002°41'0 0.0
2016-Jun-29 08:32N 39°48' E 002°41'0 0.0
2016-Jun-29 07:32N 39°48' E 002°41'0 0.0
2016-Jun-29 06:23N 39°48' E 002°41'5 6.3
2016-Jun-29 05:33N 39°47' E 002°34'1312.7
2016-Jun-29 04:33N 39°42' E 002°19'1514.6
2016-Jun-29 03:33N 39°31' E 002°08'1514.9
2016-Jun-29 02:33N 39°18' E 001°58'1514.9
2016-Jun-29 01:33N 39°05' E 001°49'1514.7
2016-Jun-29 00:33N 38°54' E 001°36'7 0.4
2016-Jun-28 07:06N 38°54' E 001°27'610.5
2016-Jun-28 06:33N 38°54' E 001°35'2512.4
2016-Jun-28 04:33N 39°16' E 001°50'1413.5
2016-Jun-28 03:33N 39°29' E 001°52'1413.7
2016-Jun-28 02:33N 39°43' E 001°55'1413.5
2016-Jun-28 01:33N 39°56' E 001°57'1413.9
2016-Jun-28 00:33N 40°10' E 002°00'1413.9
2016-Jun-27 23:33N 40°24' E 002°03'1413.7
2016-Jun-27 22:33N 40°37' E 002°05'1413.5
2016-Jun-27 21:33N 40°51' E 002°08'1413.7
2016-Jun-27 20:33N 41°04' E 002°11'1413.9
2016-Jun-27 19:33N 41°18' E 002°13'5 0.1
2016-Jun-26 06:33N 41°22' E 002°11'0 0.0
2016-Jun-26 05:32N 41°22' E 002°11'5 4.9
2016-Jun-26 04:33N 41°19' E 002°15'1312.6
2016-Jun-26 03:33N 41°09' E 002°05'1414.4
2016-Jun-26 02:33N 40°58' E 001°52'1515.0
2016-Jun-26 01:33N 40°47' E 001°38'1515.1
2016-Jun-26 00:33N 40°36' E 001°24'1515.4
2016-Jun-25 23:33N 40°26' E 001°09'1515.1
2016-Jun-25 22:33N 40°16' E 000°54'1514.8
2016-Jun-25 21:33N 40°06' E 000°40'1514.8
2016-Jun-25 20:33N 39°56' E 000°25'1514.8
2016-Jun-25 19:33N 39°46' E 000°12'1615.0
2016-Jun-25 18:28N 39°34' W 000°03'1414.9
2016-Jun-25 17:33N 39°25' W 000°16'3 3.4
2016-Jun-25 16:33N 39°27' W 000°19'0 0.0
2016-Jun-25 15:33N 39°27' W 000°19'0 0.0
2016-Jun-25 14:33N 39°27' W 000°19'0 0.0
2016-Jun-25 13:33N 39°27' W 000°19'0 0.0
2016-Jun-25 12:33N 39°27' W 000°19'0 0.0
2016-Jun-25 11:33N 39°27' W 000°19'0 0.0
2016-Jun-25 10:32N 39°27' W 000°19'0 0.0
2016-Jun-25 09:32N 39°27' W 000°19'0 0.0
2016-Jun-25 08:32N 39°27' W 000°19'0 0.0
2016-Jun-25 07:32N 39°27' W 000°19'0 0.0
2016-Jun-25 06:32N 39°27' W 000°19'0 0.1
2016-Jun-25 05:33N 39°27' W 000°19'7 6.6
2016-Jun-25 04:32N 39°26' W 000°11'6913.9
2016-Jun-24 23:33N 39°42' E 001°16'1514.7
2016-Jun-24 22:33N 39°46' E 001°35'1414.3
2016-Jun-24 21:33N 39°49' E 001°53'1414.2
2016-Jun-24 20:33N 39°52' E 002°11'1414.2
2016-Jun-24 19:33N 39°56' E 002°29'1615.8
2016-Jun-24 18:33N 39°59' E 002°49'1815.9
2016-Jun-24 17:24N 40°02' E 003°13'1213.7
2016-Jun-24 16:31N 39°50' E 003°16'1 0.0
2016-Jun-24 04:31N 39°51' E 003°17'1612.4
2016-Jun-24 03:15N 40°06' E 003°19'1213.1
2016-Jun-24 02:20N 40°18' E 003°19'1013.1
2016-Jun-24 01:33N 40°28' E 003°19'1313.3
2016-Jun-24 00:33N 40°42' E 003°19'1313.4
2016-Jun-23 23:33N 40°55' E 003°19'1313.5
2016-Jun-23 22:33N 41°09' E 003°20'1313.4
2016-Jun-23 21:33N 41°22' E 003°20'1413.4
2016-Jun-23 20:33N 41°35' E 003°20'1313.4
2016-Jun-23 19:33N 41°49' E 003°20'1313.0
2016-Jun-23 18:33N 42°02' E 003°18'14 1.1
2016-Jun-23 05:19N 42°15' E 003°10'4 5.0
2016-Jun-23 04:32N 42°13' E 003°15'1413.2
2016-Jun-23 03:28N 42°19' E 003°32'1313.9
2016-Jun-23 02:33N 42°26' E 003°46'1414.1
2016-Jun-23 01:33N 42°34' E 004°02'1413.9
2016-Jun-23 00:33N 42°42' E 004°17'1413.9
2016-Jun-22 23:34N 42°50' E 004°33'1414.0
2016-Jun-22 22:33N 42°58' E 004°49'2813.7
2016-Jun-22 20:33N 43°15' E 005°19'4 0.2
2016-Jun-22 05:30N 43°18' E 005°22'8 8.1
2016-Jun-22 04:33N 43°11' E 005°19'2511.3
2016-Jun-22 02:21N 42°58' E 005°48'911.8
2016-Jun-22 01:33N 42°55' E 006°00'1212.0
2016-Jun-22 00:33N 42°55' E 006°17'1412.0
2016-Jun-21 23:25N 42°59' E 006°35'1012.3
2016-Jun-21 22:33N 43°07' E 006°43'10 9.4
2016-Jun-21 21:27N 43°17' E 006°43'3 2.8
2016-Jun-21 20:14N 43°17' E 006°38'0 0.0
2016-Jun-21 19:26N 43°17' E 006°38'  
Track history (hours):
 
Tides and Currents Weather Stations Pressure Air Temp Water Temp Dewpoint Dewpoint Depression Visibility Wind Speed Wind Dir Waves Ship Positions

Silver Cloud

Operator: V Ships Leisure SAM

Last reported at 2016-Jul-01 18:33 UTC. Time now 2016-Jul-01 19:00 UTC.
Position N 42°07' E 011°05'.

Length 155 m; draft 5.7 m.

Type: Passenger vessel. MMSI: 309027000.

Date/timePositionNaut miles runAvg speedWind from/ knotsBaromVisibWave heightAir tempDewpointWater temp
2016-Jul-01 18:33N 42°07' E 011°05'31 3.7
2016-Jul-01 10:07N 42°05' E 011°47'20 3.4
2016-Jul-01 04:07N 41°58' E 011°22'1017.0
2016-Jul-01 03:33N 41°55' E 011°09'1716.8
2016-Jul-01 02:33N 41°49' E 010°48'2117.0
2016-Jul-01 01:18N 41°42' E 010°21'1317.2
2016-Jul-01 00:34N 41°38' E 010°05'1717.1
2016-Jun-30 23:33N 41°32' E 009°43'321 9.9
2016-Jun-29 15:12N 39°59' E 002°58'1117.2
2016-Jun-29 14:33N 39°53' E 002°45'6 5.0
2016-Jun-29 13:23N 39°48' E 002°41'0 0.0
2016-Jun-29 12:32N 39°48' E 002°41'0 0.0
2016-Jun-29 11:29N 39°48' E 002°41'0 0.0
2016-Jun-29 10:32N 39°48' E 002°41'0 0.0
2016-Jun-29 09:29N 39°48' E 002°41'0 0.0
2016-Jun-29 08:32N 39°48' E 002°41'0 0.0
2016-Jun-29 07:32N 39°48' E 002°41'0 0.0
2016-Jun-29 06:23N 39°48' E 002°41'5 6.3
2016-Jun-29 05:33N 39°47' E 002°34'1312.7
2016-Jun-29 04:33N 39°42' E 002°19'1514.6
2016-Jun-29 03:33N 39°31' E 002°08'1514.9
2016-Jun-29 02:33N 39°18' E 001°58'1514.9
2016-Jun-29 01:33N 39°05' E 001°49'1514.7
2016-Jun-29 00:33N 38°54' E 001°36'7 0.4
2016-Jun-28 07:06N 38°54' E 001°27'610.5
2016-Jun-28 06:33N 38°54' E 001°35'2512.4
2016-Jun-28 04:33N 39°16' E 001°50'1413.5
2016-Jun-28 03:33N 39°29' E 001°52'1413.7
2016-Jun-28 02:33N 39°43' E 001°55'1413.5
2016-Jun-28 01:33N 39°56' E 001°57'1413.9
2016-Jun-28 00:33N 40°10' E 002°00'1413.9
2016-Jun-27 23:33N 40°24' E 002°03'1413.7
2016-Jun-27 22:33N 40°37' E 002°05'1413.5
2016-Jun-27 21:33N 40°51' E 002°08'1413.7
2016-Jun-27 20:33N 41°04' E 002°11'1413.9
2016-Jun-27 19:33N 41°18' E 002°13'5 0.1
2016-Jun-26 06:33N 41°22' E 002°11'0 0.0
2016-Jun-26 05:32N 41°22' E 002°11'5 4.9
2016-Jun-26 04:33N 41°19' E 002°15'1312.6
2016-Jun-26 03:33N 41°09' E 002°05'1414.4
2016-Jun-26 02:33N 40°58' E 001°52'1515.0
2016-Jun-26 01:33N 40°47' E 001°38'1515.1
2016-Jun-26 00:33N 40°36' E 001°24'1515.4
2016-Jun-25 23:33N 40°26' E 001°09'1515.1
2016-Jun-25 22:33N 40°16' E 000°54'1514.8
2016-Jun-25 21:33N 40°06' E 000°40'1514.8
2016-Jun-25 20:33N 39°56' E 000°25'1514.8
2016-Jun-25 19:33N 39°46' E 000°12'1615.0
2016-Jun-25 18:28N 39°34' W 000°03'1414.9
2016-Jun-25 17:33N 39°25' W 000°16'3 3.4
2016-Jun-25 16:33N 39°27' W 000°19'0 0.0
2016-Jun-25 15:33N 39°27' W 000°19'0 0.0
2016-Jun-25 14:33N 39°27' W 000°19'0 0.0
2016-Jun-25 13:33N 39°27' W 000°19'0 0.0
2016-Jun-25 12:33N 39°27' W 000°19'0 0.0
2016-Jun-25 11:33N 39°27' W 000°19'0 0.0
2016-Jun-25 10:32N 39°27' W 000°19'0 0.0
2016-Jun-25 09:32N 39°27' W 000°19'0 0.0
2016-Jun-25 08:32N 39°27' W 000°19'0 0.0
2016-Jun-25 07:32N 39°27' W 000°19'0 0.0
2016-Jun-25 06:32N 39°27' W 000°19'0 0.1
2016-Jun-25 05:33N 39°27' W 000°19'7 6.6
2016-Jun-25 04:32N 39°26' W 000°11'6913.9
2016-Jun-24 23:33N 39°42' E 001°16'1514.7
2016-Jun-24 22:33N 39°46' E 001°35'1414.3
2016-Jun-24 21:33N 39°49' E 001°53'1414.2
2016-Jun-24 20:33N 39°52' E 002°11'1414.2
2016-Jun-24 19:33N 39°56' E 002°29'1615.8
2016-Jun-24 18:33N 39°59' E 002°49'1815.9
2016-Jun-24 17:24N 40°02' E 003°13'1213.7
2016-Jun-24 16:31N 39°50' E 003°16'1 0.0
2016-Jun-24 04:31N 39°51' E 003°17'1612.4
2016-Jun-24 03:15N 40°06' E 003°19'1213.1
2016-Jun-24 02:20N 40°18' E 003°19'1013.1
2016-Jun-24 01:33N 40°28' E 003°19'1313.3
2016-Jun-24 00:33N 40°42' E 003°19'1313.4
2016-Jun-23 23:33N 40°55' E 003°19'1313.5
2016-Jun-23 22:33N 41°09' E 003°20'1313.4
2016-Jun-23 21:33N 41°22' E 003°20'1413.4
2016-Jun-23 20:33N 41°35' E 003°20'1313.4
2016-Jun-23 19:33N 41°49' E 003°20'1313.0
2016-Jun-23 18:33N 42°02' E 003°18'14 1.1
2016-Jun-23 05:19N 42°15' E 003°10'4 5.0
2016-Jun-23 04:32N 42°13' E 003°15'1413.2
2016-Jun-23 03:28N 42°19' E 003°32'1313.9
2016-Jun-23 02:33N 42°26' E 003°46'1414.1
2016-Jun-23 01:33N 42°34' E 004°02'1413.9
2016-Jun-23 00:33N 42°42' E 004°17'1413.9
2016-Jun-22 23:34N 42°50' E 004°33'1414.0
2016-Jun-22 22:33N 42°58' E 004°49'2813.7
2016-Jun-22 20:33N 43°15' E 005°19'4 0.2
2016-Jun-22 05:30N 43°18' E 005°22'8 8.1
2016-Jun-22 04:33N 43°11' E 005°19'2511.3
2016-Jun-22 02:21N 42°58' E 005°48'911.8
2016-Jun-22 01:33N 42°55' E 006°00'1212.0
2016-Jun-22 00:33N 42°55' E 006°17'1412.0
2016-Jun-21 23:25N 42°59' E 006°35'1012.3
2016-Jun-21 22:33N 43°07' E 006°43'10 9.4
2016-Jun-21 21:27N 43°17' E 006°43'3 2.8
2016-Jun-21 20:14N 43°17' E 006°38'0 0.0
2016-Jun-21 19:26N 43°17' E 006°38'  

Dump ship's entire track history